Time;durP1;ratioP1;P1;durP2;ratioP2;P2;SDS_P1;SDS_P2;PMS_P1;PMS_P2;Temp;Humidity;BMP_temperature;BMP_pressure;BME280_temperature;BME280_humidity;BME280_pressure;Samples;Min_cycle;Max_cycle;Signal;HPM_P1;HPM_P2
2022/11/15 00:01:08;;;;;;;11.52;7.28;;;13.80;62.60;;;;;;5064343;28;20041;-54
2022/11/15 00:03:35;;;;;;;15.32;7.55;;;13.90;62.70;;;;;;5064029;28;20056;-53
2022/11/15 00:06:04;;;;;;;11.15;7.03;;;13.90;62.70;;;;;;5065684;28;20049;-53
2022/11/15 00:08:32;;;;;;;11.70;6.53;;;14.00;62.60;;;;;;5065757;28;20071;-53
2022/11/15 00:11:03;;;;;;;12.60;7.60;;;14.00;62.50;;;;;;5059497;28;20048;-54
2022/11/15 00:13:31;;;;;;;13.60;6.80;;;14.00;62.40;;;;;;5063927;28;20063;-51
2022/11/15 00:15:59;;;;;;;12.50;6.50;;;14.00;62.10;;;;;;5062189;28;20063;-54
2022/11/15 00:18:26;;;;;;;9.70;6.65;;;14.00;61.90;;;;;;5063476;28;20067;-53
2022/11/15 00:20:53;;;;;;;13.32;7.00;;;14.10;61.80;;;;;;5057898;28;20060;-54
2022/11/15 00:23:20;;;;;;;12.93;7.10;;;14.10;61.80;;;;;;5060532;28;20057;-47
2022/11/15 00:25:48;;;;;;;11.65;7.05;;;14.10;61.70;;;;;;5060697;28;20056;-52
2022/11/15 00:28:16;;;;;;;10.77;6.32;;;14.10;61.70;;;;;;5062857;28;20052;-54
2022/11/15 00:30:43;;;;;;;14.77;6.82;;;14.10;61.80;;;;;;5058153;28;20052;-54
2022/11/15 00:33:11;;;;;;;11.52;6.93;;;14.10;61.70;;;;;;5061784;28;20055;-54
2022/11/15 00:35:38;;;;;;;11.18;6.32;;;14.10;61.70;;;;;;5060870;28;20056;-54
2022/11/15 00:38:05;;;;;;;8.60;6.13;;;14.10;61.60;;;;;;5061270;28;20064;-53
2022/11/15 00:40:32;;;;;;;10.05;6.28;;;14.20;61.60;;;;;;5065712;28;20048;-55
2022/11/15 00:43:00;;;;;;;11.57;6.75;;;14.20;61.60;;;;;;5062932;28;20056;-54
2022/11/15 00:45:28;;;;;;;9.40;6.60;;;14.20;61.70;;;;;;5067137;28;20052;-54
2022/11/15 00:47:55;;;;;;;9.07;5.95;;;14.20;61.70;;;;;;5062656;28;20420;-52
2022/11/15 00:50:23;;;;;;;12.05;6.55;;;14.20;61.60;;;;;;5058585;28;20056;-48
2022/11/15 00:52:50;;;;;;;9.10;6.18;;;14.20;61.50;;;;;;5059347;28;20060;-50
2022/11/15 00:55:18;;;;;;;8.70;6.15;;;14.20;61.50;;;;;;5061436;28;20456;-51
2022/11/15 00:57:46;;;;;;;11.98;6.60;;;14.30;61.40;;;;;;5061809;28;20052;-52
2022/11/15 01:00:14;;;;;;;9.05;6.13;;;14.30;61.30;;;;;;5059110;28;20079;-54
2022/11/15 01:02:43;;;;;;;9.75;5.82;;;14.30;61.20;;;;;;5063249;28;20056;-52
2022/11/15 01:05:10;;;;;;;10.82;6.03;;;14.30;61.20;;;;;;5062089;28;20082;-54
2022/11/15 01:07:37;;;;;;;11.30;6.68;;;14.30;61.20;;;;;;5062417;28;20629;-54
2022/11/15 01:10:06;;;;;;;11.18;6.60;;;14.30;61.30;;;;;;5058512;28;20052;-52
2022/11/15 01:12:33;;;;;;;10.35;6.00;;;14.30;61.30;;;;;;5061044;28;20063;-53
2022/11/15 01:15:00;;;;;;;10.10;6.05;;;14.40;61.40;;;;;;5062030;28;20393;-55
2022/11/15 01:17:28;;;;;;;7.57;4.63;;;14.30;61.40;;;;;;5061771;28;20362;-49
2022/11/15 01:19:56;;;;;;;12.73;5.68;;;14.40;61.50;;;;;;5063691;28;20067;-49
2022/11/15 01:22:23;;;;;;;7.88;5.35;;;14.40;61.50;;;;;;5059891;28;20053;-52
2022/11/15 01:24:51;;;;;;;10.63;5.95;;;14.40;61.50;;;;;;5060665;28;20054;-49
2022/11/15 01:27:18;;;;;;;10.25;5.38;;;14.40;61.60;;;;;;5061936;28;20068;-55
2022/11/15 01:29:46;;;;;;;9.45;5.38;;;14.50;61.60;;;;;;5062667;28;20056;-54
2022/11/15 01:32:13;;;;;;;7.65;5.22;;;14.50;61.50;;;;;;5058870;28;20508;-54
2022/11/15 01:34:40;;;;;;;10.63;5.30;;;14.50;61.40;;;;;;5060221;28;20512;-49
2022/11/15 01:37:09;;;;;;;8.98;5.65;;;14.50;61.40;;;;;;5061077;28;20052;-53
2022/11/15 01:39:36;;;;;;;10.55;5.72;;;14.50;62.10;;;;;;5059478;28;20052;-54
2022/11/15 01:42:04;;;;;;;10.70;5.05;;;14.50;61.30;;;;;;5058930;28;20871;-55
2022/11/15 01:44:43;;;;;;;9.85;5.55;;;14.50;61.20;;;;;;5063003;28;20060;-51
2022/11/15 01:47:15;;;;;;;9.55;5.70;;;14.50;61.40;;;;;;5060763;28;20504;-53
2022/11/15 01:49:50;;;;;;;11.38;6.55;;;14.50;61.30;;;;;;5059953;28;20067;-54
2022/11/15 01:52:22;;;;;;;10.55;5.07;;;14.50;61.30;;;;;;5058266;28;20060;-48
2022/11/15 01:54:54;;;;;;;8.82;5.43;;;14.50;61.20;;;;;;5061104;28;20060;-54
2022/11/15 01:57:21;;;;;;;8.80;5.00;;;14.50;61.20;;;;;;5060519;28;20526;-46
2022/11/15 01:59:49;;;;;;;7.75;5.38;;;14.50;61.20;;;;;;5062098;28;20056;-43
2022/11/15 02:02:16;;;;;;;9.77;6.38;;;14.50;61.20;;;;;;5062947;28;20399;-55
2022/11/15 02:04:46;;;;;;;9.40;5.68;;;14.50;61.20;;;;;;5065882;28;20052;-54
2022/11/15 02:07:16;;;;;;;8.35;5.05;;;14.50;61.20;;;;;;5065230;28;20060;-51
2022/11/15 02:09:46;;;;;;;10.02;5.60;;;14.60;61.20;;;;;;5064234;28;20063;-53
2022/11/15 02:12:18;;;;;;;8.40;5.35;;;14.50;61.10;;;;;;5062616;28;20048;-54
2022/11/15 02:14:49;;;;;;;7.43;5.13;;;14.50;61.10;;;;;;5067580;28;20384;-54
2022/11/15 02:17:32;;;;;;;9.70;5.35;;;14.60;61.00;;;;;;5065957;28;20053;-49
2022/11/15 02:20:29;;;;;;;7.53;5.30;;;14.50;61.00;;;;;;5066005;28;20054;-47
2022/11/15 02:23:16;;;;;;;8.20;5.22;;;14.60;61.10;;;;;;5063647;28;20056;-50
2022/11/15 02:25:57;;;;;;;9.02;5.05;;;14.60;61.00;;;;;;5065521;28;20061;-53
2022/11/15 02:28:45;;;;;;;12.90;5.45;;;14.60;60.90;;;;;;5064259;28;20055;-53
2022/11/15 02:31:19;;;;;;;9.77;4.93;;;14.60;61.10;;;;;;5061604;28;20048;-54
2022/11/15 02:34:00;;;;;;;8.77;5.35;;;14.60;61.00;;;;;;5063219;28;20068;-53
2022/11/15 02:36:40;;;;;;;10.32;6.10;;;14.60;61.10;;;;;;5063722;28;20059;-53
2022/11/15 02:39:15;;;;;;;9.38;5.30;;;14.60;61.10;;;;;;5060267;28;20044;-54
2022/11/15 02:41:48;;;;;;;8.35;6.07;;;14.60;61.20;;;;;;5060667;28;20472;-55
2022/11/15 02:44:22;;;;;;;9.77;5.57;;;14.60;61.30;;;;;;5062815;28;20048;-52
2022/11/15 02:49:41;;;;;;;10.75;5.75;;;14.60;61.20;;;;;;5073564;28;20068;-54
2022/11/15 02:52:09;;;;;;;7.82;5.15;;;14.60;61.20;;;;;;5062229;28;20508;-52
2022/11/15 02:54:36;;;;;;;11.57;6.03;;;14.60;61.10;;;;;;5059964;28;20057;-54
2022/11/15 02:57:07;;;;;;;6.13;4.97;;;14.60;61.10;;;;;;5065327;28;20060;-52
2022/11/15 03:00:06;;;;;;;9.05;5.25;;;14.60;61.10;;;;;;5063861;28;20419;-51
2022/11/15 03:02:56;;;;;;;10.15;4.95;;;14.60;61.20;;;;;;5069567;28;20063;-54
2022/11/15 03:05:32;;;;;;;8.73;5.15;;;14.60;61.10;;;;;;5063357;28;20048;-54
2022/11/15 03:08:06;;;;;;;8.13;5.50;;;14.60;60.90;;;;;;5062490;28;20429;-53
2022/11/15 03:10:43;;;;;;;11.20;5.97;;;14.70;60.90;;;;;;5059212;28;20056;-55
2022/11/15 03:13:21;;;;;;;7.43;5.05;;;14.70;61.00;;;;;;5060757;28;20530;-53
2022/11/15 03:15:57;;;;;;;6.70;5.57;;;14.70;60.90;;;;;;5059807;28;20499;-53
2022/11/15 03:18:30;;;;;;;9.48;5.85;;;14.70;60.90;;;;;;5058457;28;20075;-54
2022/11/15 03:21:00;;;;;;;6.82;5.63;;;14.70;60.90;;;;;;5058568;28;20048;-54
2022/11/15 03:23:29;;;;;;;8.98;5.72;;;14.70;60.90;;;;;;5062015;28;20051;-52
2022/11/15 03:25:59;;;;;;;9.48;6.07;;;14.70;60.90;;;;;;5057257;28;20496;-48
2022/11/15 03:28:33;;;;;;;7.43;5.15;;;14.70;60.90;;;;;;5061947;28;20057;-53
2022/11/15 03:31:46;;;;;;;6.65;5.13;;;14.70;60.90;;;;;;5061002;28;20428;-53
2022/11/15 03:33:56;;;;;;;7.03;4.97;;;14.80;60.90;;;;;;5064646;28;20504;-50
2022/11/15 03:36:25;;;;;;;9.38;5.93;;;14.70;61.60;;;;;;5062289;28;20053;-53
2022/11/15 03:38:56;;;;;;;9.55;5.72;;;14.80;60.90;;;;;;5063013;28;20419;-53
2022/11/15 03:41:28;;;;;;;7.10;4.88;;;14.80;61.70;;;;;;5068741;28;20059;-55
2022/11/15 03:44:00;;;;;;;9.57;6.13;;;14.80;61.00;;;;;;5064987;28;20056;-47
2022/11/15 03:46:33;;;;;;;11.02;5.90;;;14.80;61.10;;;;;;5064922;28;20056;-48
2022/11/15 03:49:08;;;;;;;8.50;6.00;;;14.80;61.10;;;;;;5062013;28;20052;-44
2022/11/15 03:51:35;;;;;;;8.75;5.85;;;14.80;61.10;;;;;;5063315;28;20049;-44
2022/11/15 03:54:05;;;;;;;8.50;5.60;;;14.80;61.00;;;;;;5071491;28;20503;-47
2022/11/15 03:56:32;;;;;;;10.77;5.90;;;14.80;61.00;;;;;;5063548;28;20075;-46
2022/11/15 03:58:59;;;;;;;8.88;5.82;;;14.80;61.10;;;;;;5063127;28;20404;-44
2022/11/15 04:01:26;;;;;;;8.63;5.72;;;14.80;61.10;;;;;;5060223;28;20396;-45
2022/11/15 04:03:54;;;;;;;8.77;5.88;;;14.80;61.10;;;;;;5063282;28;20531;-44
2022/11/15 04:06:22;;;;;;;6.68;4.78;;;14.80;61.20;;;;;;5071180;28;20056;-45
2022/11/15 04:08:49;;;;;;;6.55;4.15;;;14.90;61.20;;;;;;5062974;28;20682;-47
2022/11/15 04:11:17;;;;;;;7.22;4.88;;;14.90;61.20;;;;;;5061301;28;20056;-44
2022/11/15 04:13:44;;;;;;;8.02;4.55;;;14.90;61.20;;;;;;5062962;28;20079;-45
2022/11/15 04:16:11;;;;;;;5.53;4.43;;;14.90;61.20;;;;;;5030249;28;20053;-46
2022/11/15 04:18:38;;;;;;;5.85;4.18;;;14.90;61.10;;;;;;5072228;28;20051;-49
2022/11/15 04:26:37;;;;;;;4.35;3.72;;;14.90;61.10;;;;;;5086385;28;20068;-47
2022/11/15 04:31:49;;;;;;;7.20;4.13;;;14.90;60.90;;;;;;5088471;28;20059;-45
2022/11/15 04:34:16;;;;;;;6.75;3.53;;;14.90;60.80;;;;;;5082619;28;20059;-44
2022/11/15 04:39:29;;;;;;;6.25;4.40;;;14.90;60.60;;;;;;5087942;28;20064;-43
2022/11/15 04:41:56;;;;;;;7.13;4.22;;;14.80;60.60;;;;;;5083455;28;20048;-44
2022/11/15 04:44:24;;;;;;;4.85;3.92;;;14.80;60.70;;;;;;5082581;28;20442;-46
2022/11/15 04:46:51;;;;;;;5.57;4.32;;;14.80;60.70;;;;;;5079803;28;20051;-48
2022/11/15 04:49:18;;;;;;;5.70;4.30;;;14.80;60.90;;;;;;5080830;28;20384;-46
2022/11/15 04:51:46;;;;;;;7.25;4.35;;;14.80;61.10;;;;;;5079524;28;20056;-45
2022/11/15 04:54:13;;;;;;;7.63;4.13;;;14.80;61.30;;;;;;5081364;28;20404;-47
2022/11/15 04:56:43;;;;;;;4.68;3.70;;;14.80;61.40;;;;;;5082424;28;20171;-49
2022/11/15 04:59:10;;;;;;;7.63;4.15;;;14.70;61.50;;;;;;5080720;28;20272;-45
2022/11/15 05:01:37;;;;;;;7.32;3.92;;;14.80;61.70;;;;;;5075858;28;20342;-49
2022/11/15 05:04:19;;;;;;;8.25;3.95;;;14.80;61.80;;;;;;5075061;28;20677;-48
2022/11/15 05:06:47;;;;;;;6.43;4.20;;;14.70;61.80;;;;;;5080852;28;20460;-49
2022/11/15 05:09:15;;;;;;;6.38;4.13;;;14.80;61.90;;;;;;5081301;28;20062;-47
2022/11/15 05:11:43;;;;;;;6.63;4.00;;;14.70;61.90;;;;;;5071346;28;20051;-46
2022/11/15 05:14:11;;;;;;;6.07;4.13;;;14.70;61.90;;;;;;5080203;28;20052;-44
2022/11/15 05:16:38;;;;;;;3.97;3.15;;;14.80;62.00;;;;;;5073931;28;20075;-43
2022/11/15 05:19:06;;;;;;;6.10;3.15;;;14.80;62.00;;;;;;5076405;28;20055;-44
2022/11/15 05:21:34;;;;;;;8.77;3.83;;;14.80;61.90;;;;;;5077624;28;20071;-44
2022/11/15 05:24:02;;;;;;;7.60;3.95;;;14.80;62.00;;;;;;5077980;28;20071;-47
2022/11/15 05:26:29;;;;;;;5.70;3.58;;;14.80;61.90;;;;;;5080252;28;20062;-45
2022/11/15 05:28:59;;;;;;;4.70;3.60;;;14.80;61.90;;;;;;5079074;28;20059;-48
2022/11/15 05:31:28;;;;;;;4.30;3.22;;;14.80;61.90;;;;;;5073265;28;20059;-43
2022/11/15 05:33:56;;;;;;;4.90;3.58;;;14.80;61.80;;;;;;5075528;28;20051;-47
2022/11/15 05:36:31;;;;;;;42.85;17.83;;;14.80;61.70;;;;;;5079145;28;20052;-48
2022/11/15 05:38:59;;;;;;;14.10;7.57;;;14.80;61.70;;;;;;5076693;28;20048;-47
2022/11/15 05:41:32;;;;;;;8.10;4.40;;;14.90;61.70;;;;;;5078135;28;20052;-50
2022/11/15 05:44:02;;;;;;;6.00;3.50;;;14.90;61.60;;;;;;5084209;28;20051;-47
2022/11/15 05:46:30;;;;;;;4.45;3.30;;;14.90;61.50;;;;;;5082400;28;20439;-50
2022/11/15 05:48:58;;;;;;;3.67;3.13;;;14.90;61.20;;;;;;5084478;28;20476;-48
2022/11/15 05:51:28;;;;;;;3.80;2.47;;;14.90;61.10;;;;;;5075114;28;20052;-44
2022/11/15 05:53:59;;;;;;;6.28;2.70;;;14.80;60.80;;;;;;5084211;28;20492;-44
2022/11/15 05:56:26;;;;;;;3.55;2.60;;;14.90;60.80;;;;;;5084067;28;20048;-44
2022/11/15 05:58:55;;;;;;;4.97;2.70;;;14.80;60.60;;;;;;5069378;28;20052;-44
2022/11/15 06:01:25;;;;;;;4.35;2.33;;;14.80;60.50;;;;;;5078163;28;20044;-48
2022/11/15 06:03:52;;;;;;;5.00;2.40;;;14.80;60.40;;;;;;5077654;28;20511;-46
2022/11/15 06:06:20;;;;;;;24.52;11.68;;;14.80;60.30;;;;;;5075829;28;20067;-45
2022/11/15 06:08:47;;;;;;;9.90;4.90;;;14.80;60.20;;;;;;5078673;28;20052;-49
2022/11/15 06:11:15;;;;;;;4.53;3.00;;;14.80;60.10;;;;;;5070392;28;20418;-45
2022/11/15 06:13:42;;;;;;;5.35;2.70;;;14.80;60.00;;;;;;5081876;28;20059;-42
2022/11/15 06:16:09;;;;;;;3.17;2.38;;;14.70;59.90;;;;;;5075516;28;20052;-46
2022/11/15 06:18:38;;;;;;;5.55;2.20;;;14.70;59.90;;;;;;5081640;28;20510;-44
2022/11/15 06:21:07;;;;;;;4.03;2.40;;;14.70;59.80;;;;;;5079102;28;20048;-46
2022/11/15 06:23:35;;;;;;;4.43;2.47;;;14.70;59.80;;;;;;5080855;28;20063;-47
2022/11/15 06:26:03;;;;;;;3.85;2.17;;;14.70;59.70;;;;;;5079393;28;20044;-46
2022/11/15 06:28:32;;;;;;;3.58;2.22;;;14.60;59.60;;;;;;5082997;28;20423;-47
2022/11/15 06:31:03;;;;;;;3.63;1.98;;;14.60;59.60;;;;;;5080500;28;20048;-51
2022/11/15 06:33:31;;;;;;;3.42;2.25;;;14.60;59.50;;;;;;5085048;28;20048;-48
2022/11/15 06:36:02;;;;;;;2.63;1.98;;;14.60;59.60;;;;;;5076043;28;20056;-48
2022/11/15 06:38:29;;;;;;;3.33;1.80;;;14.60;59.60;;;;;;5079520;28;20058;-46
2022/11/15 06:41:03;;;;;;;2.45;1.73;;;14.50;59.60;;;;;;5075416;28;21753;-47
2022/11/15 06:43:30;;;;;;;3.05;1.85;;;14.50;59.60;;;;;;5079458;28;20052;-46
2022/11/15 06:45:58;;;;;;;4.05;1.73;;;14.50;59.60;;;;;;5082252;28;20519;-47
2022/11/15 06:48:26;;;;;;;3.05;1.50;;;14.50;59.50;;;;;;5082591;28;20056;-47
2022/11/15 06:50:53;;;;;;;2.47;1.55;;;14.50;59.50;;;;;;5079924;28;20423;-48
2022/11/15 06:53:23;;;;;;;1.75;1.23;;;14.50;59.40;;;;;;5080255;28;20522;-50
2022/11/15 06:55:50;;;;;;;3.08;1.35;;;14.50;59.40;;;;;;5085242;28;20546;-49
2022/11/15 06:58:18;;;;;;;3.17;1.27;;;14.50;59.40;;;;;;5083507;28;20063;-47
2022/11/15 07:00:45;;;;;;;2.85;1.58;;;14.40;59.20;;;;;;5072659;28;20052;-50
2022/11/15 07:03:12;;;;;;;5.18;1.52;;;14.40;59.20;;;;;;5074855;28;20496;-46
2022/11/15 07:05:40;;;;;;;2.03;1.20;;;14.40;59.20;;;;;;5083417;28;20052;-46
2022/11/15 07:08:07;;;;;;;1.60;1.02;;;14.40;59.20;;;;;;5082492;28;20074;-46
2022/11/15 07:10:35;;;;;;;3.03;1.40;;;14.40;59.20;;;;;;5078643;28;20054;-46
2022/11/15 07:13:03;;;;;;;1.95;1.50;;;14.40;59.20;;;;;;5082795;28;20056;-47
2022/11/15 07:15:30;;;;;;;2.58;1.25;;;14.30;59.10;;;;;;5081773;28;20044;-48
2022/11/15 07:18:00;;;;;;;4.22;1.23;;;14.30;59.20;;;;;;5083725;28;20488;-46
2022/11/15 07:20:28;;;;;;;2.53;1.05;;;14.30;59.10;;;;;;5079523;28;20098;-43
2022/11/15 07:23:00;;;;;;;5.55;1.42;;;14.30;59.10;;;;;;5079820;28;20428;-44
2022/11/15 07:25:28;;;;;;;3.00;1.58;;;14.30;59.60;;;;;;5081004;28;20051;-45
2022/11/15 07:27:57;;;;;;;11.45;3.90;;;14.30;59.10;;;;;;5071366;28;20692;-42
2022/11/15 07:30:26;;;;;;;5.53;2.90;;;14.30;59.10;;;;;;5078400;28;20056;-43
2022/11/15 07:32:54;;;;;;;3.50;2.60;;;14.30;59.10;;;;;;5083692;28;20056;-43
2022/11/15 07:35:21;;;;;;;2.38;1.60;;;14.30;59.20;;;;;;5083410;28;20060;-45
2022/11/15 07:37:55;;;;;;;3.00;1.80;;;14.30;59.20;;;;;;5081945;28;20056;-46
2022/11/15 07:40:22;;;;;;;3.55;2.10;;;14.30;59.30;;;;;;5079612;28;20431;-50
2022/11/15 07:42:56;;;;;;;2.25;1.70;;;14.30;59.30;;;;;;5075563;28;20059;-49
2022/11/15 07:45:26;;;;;;;2.67;1.92;;;14.20;59.30;;;;;;5083782;28;20622;-49
2022/11/15 07:47:55;;;;;;;5.70;1.90;;;14.20;59.30;;;;;;5084912;28;20055;-46
2022/11/15 07:50:23;;;;;;;3.38;1.73;;;14.30;59.30;;;;;;5078857;28;20059;-48
2022/11/15 07:52:55;;;;;;;2.58;1.65;;;14.20;59.40;;;;;;5083044;28;20060;-43
2022/11/15 07:55:22;;;;;;;6.15;2.20;;;14.20;59.40;;;;;;5073686;28;20138;-45
2022/11/15 07:57:49;;;;;;;13.93;6.55;;;14.20;59.40;;;;;;5076806;28;20044;-49
2022/11/15 08:00:18;;;;;;;9.05;3.80;;;14.20;59.40;;;;;;5080589;28;20044;-50
2022/11/15 08:02:46;;;;;;;3.83;2.47;;;14.20;59.50;;;;;;5076049;28;20048;-47
2022/11/15 08:05:14;;;;;;;4.88;2.10;;;14.30;59.60;;;;;;5081881;28;20427;-50
2022/11/15 08:07:42;;;;;;;4.82;1.80;;;14.30;59.60;;;;;;5078995;28;20044;-43
2022/11/15 08:10:11;;;;;;;3.08;1.80;;;14.30;59.60;;;;;;5075490;28;20052;-49
2022/11/15 08:12:38;;;;;;;5.25;2.30;;;14.30;59.60;;;;;;5083328;28;20052;-48
2022/11/15 08:15:07;;;;;;;3.28;1.73;;;14.30;59.60;;;;;;5078302;28;20399;-47
2022/11/15 08:17:34;;;;;;;5.43;2.15;;;14.30;59.60;;;;;;5083871;28;20063;-45
2022/11/15 08:20:03;;;;;;;4.88;2.38;;;14.30;59.60;;;;;;5079646;28;20058;-46
2022/11/15 08:22:30;;;;;;;2.72;1.90;;;14.40;59.70;;;;;;5073380;28;20412;-45
2022/11/15 08:24:57;;;;;;;3.05;1.73;;;14.30;59.60;;;;;;5076008;28;20044;-46
2022/11/15 08:27:26;;;;;;;4.40;1.75;;;14.40;59.80;;;;;;5079341;28;20052;-43
2022/11/15 08:29:54;;;;;;;2.55;1.48;;;14.40;59.60;;;;;;5083513;28;20052;-51
2022/11/15 08:32:21;;;;;;;6.93;1.90;;;14.40;59.60;;;;;;5073590;28;20508;-46
2022/11/15 08:34:48;;;;;;;2.78;1.55;;;14.40;59.60;;;;;;5079067;28;20479;-46
2022/11/15 08:37:17;;;;;;;3.58;1.90;;;14.40;59.50;;;;;;5079964;28;20415;-46
2022/11/15 08:39:44;;;;;;;3.65;1.58;;;14.40;59.50;;;;;;5079111;28;20059;-43
2022/11/15 08:42:11;;;;;;;4.07;1.80;;;14.50;59.50;;;;;;5077985;28;20408;-48
2022/11/15 08:44:38;;;;;;;5.28;1.65;;;14.50;59.40;;;;;;5081001;28;20043;-45
2022/11/15 08:47:06;;;;;;;2.92;1.45;;;14.50;59.20;;;;;;5082626;28;20044;-50
2022/11/15 08:49:33;;;;;;;2.17;1.35;;;14.50;59.10;;;;;;5082046;28;20063;-47
2022/11/15 08:52:00;;;;;;;2.55;1.30;;;14.50;59.00;;;;;;5078713;28;20037;-44
2022/11/15 08:54:29;;;;;;;3.42;1.20;;;14.50;58.90;;;;;;5078420;28;20105;-47
2022/11/15 08:56:56;;;;;;;8.82;1.65;;;14.60;58.70;;;;;;5081012;28;20051;-48
2022/11/15 08:59:23;;;;;;;2.95;1.30;;;14.60;58.70;;;;;;5074779;28;20056;-49
2022/11/15 09:01:51;;;;;;;3.50;1.42;;;14.60;58.50;;;;;;5076901;28;20404;-49
2022/11/15 09:04:18;;;;;;;2.20;1.40;;;14.60;58.40;;;;;;5076311;28;20071;-50
2022/11/15 09:06:45;;;;;;;2.72;1.20;;;14.60;58.30;;;;;;5081005;28;20067;-48
2022/11/15 09:09:12;;;;;;;2.05;1.10;;;14.60;58.10;;;;;;5080959;28;20049;-44
2022/11/15 09:11:41;;;;;;;2.03;1.00;;;14.70;58.20;;;;;;5079751;28;20048;-45
2022/11/15 09:14:08;;;;;;;3.83;1.23;;;14.70;58.00;;;;;;5076485;28;20059;-48
2022/11/15 09:16:35;;;;;;;2.85;1.30;;;14.70;58.00;;;;;;5077171;28;20048;-48
2022/11/15 09:19:03;;;;;;;2.28;1.20;;;14.70;58.00;;;;;;5081515;28;20063;-50
2022/11/15 09:21:30;;;;;;;1.83;1.10;;;14.70;57.80;;;;;;5072974;28;20060;-48
2022/11/15 09:23:58;;;;;;;1.65;1.02;;;14.70;57.80;;;;;;5077070;28;20048;-49
2022/11/15 09:26:25;;;;;;;3.05;1.35;;;14.80;57.70;;;;;;5077285;28;20083;-49
2022/11/15 09:28:54;;;;;;;3.25;1.10;;;14.80;57.70;;;;;;5079747;28;20051;-50
2022/11/15 09:31:21;;;;;;;1.88;1.17;;;14.90;57.50;;;;;;5074621;28;20495;-48
2022/11/15 09:33:48;;;;;;;3.20;1.30;;;14.80;57.30;;;;;;5077358;28;20058;-44
2022/11/15 09:36:16;;;;;;;2.90;0.98;;;14.90;57.20;;;;;;5074294;28;20060;-49
2022/11/15 09:38:43;;;;;;;3.63;1.02;;;14.90;57.10;;;;;;5077339;28;20380;-51
2022/11/15 09:41:52;;;;;;;1.45;0.77;;;14.90;57.10;;;;;;5078540;28;20059;-43
2022/11/15 09:44:41;;;;;;;5.28;0.95;;;14.90;56.60;;;;;;5078074;28;20063;-44
2022/11/15 09:47:35;;;;;;;4.13;1.27;;;14.90;56.50;;;;;;5079266;28;20055;-46
2022/11/15 09:50:10;;;;;;;2.10;1.27;;;15.00;56.60;;;;;;5049167;28;20600;-49
2022/11/15 09:52:40;;;;;;;1.67;0.80;;;15.00;56.70;;;;;;5075778;28;20054;-45
2022/11/15 09:55:11;;;;;;;2.45;1.13;;;15.00;56.60;;;;;;5077006;28;20048;-43
2022/11/15 09:57:43;;;;;;;2.10;0.90;;;15.00;56.40;;;;;;5078441;28;20056;-47
2022/11/15 10:00:18;;;;;;;2.70;0.82;;;15.00;56.20;;;;;;5079021;28;20568;-47
2022/11/15 10:03:09;;;;;;;3.42;1.10;;;15.10;56.00;;;;;;5074241;28;20056;-43
2022/11/15 10:05:39;;;;;;;2.28;1.00;;;15.10;55.80;;;;;;5078840;28;20063;-43
2022/11/15 10:08:17;;;;;;;2.88;0.70;;;15.20;55.80;;;;;;5078250;28;20411;-47
2022/11/15 10:10:47;;;;;;;2.22;0.80;;;15.20;55.30;;;;;;5075527;28;20071;-42
2022/11/15 10:13:19;;;;;;;6.82;1.00;;;15.20;55.30;;;;;;5076812;28;20059;-47
2022/11/15 10:15:48;;;;;;;4.35;0.95;;;15.20;55.30;;;;;;5079007;28;20044;-45
2022/11/15 10:18:19;;;;;;;2.22;0.70;;;15.30;55.10;;;;;;5075316;28;20491;-46
2022/11/15 10:20:49;;;;;;;2.13;0.82;;;15.20;55.10;;;;;;5071769;28;20044;-48
2022/11/15 10:23:19;;;;;;;8.57;2.10;;;15.30;55.10;;;;;;5078193;28;20526;-46
2022/11/15 10:25:47;;;;;;;1.83;0.70;;;15.30;54.90;;;;;;5084812;28;20056;-46
2022/11/15 10:28:17;;;;;;;2.55;0.63;;;15.30;54.60;;;;;;5083593;28;20500;-42
2022/11/15 10:30:47;;;;;;;2.50;0.82;;;15.40;54.60;;;;;;5083691;28;20454;-42
2022/11/15 10:33:25;;;;;;;7.72;0.82;;;15.40;54.50;;;;;;5082141;28;20060;-43
2022/11/15 10:36:21;;;;;;;2.42;1.02;;;15.40;54.40;;;;;;5081400;28;20040;-48
2022/11/15 10:38:59;;;;;;;5.38;1.27;;;15.40;54.60;;;;;;5081453;28;20411;-42
2022/11/15 10:41:46;;;;;;;1.77;0.90;;;15.50;54.40;;;;;;5080726;28;20499;-44
2022/11/15 10:44:24;;;;;;;6.15;1.00;;;15.50;54.40;;;;;;5077029;28;20062;-41
2022/11/15 10:47:22;;;;;;;3.65;0.80;;;15.50;54.20;;;;;;5082082;28;20044;-42
2022/11/15 10:49:58;;;;;;;2.65;1.00;;;15.60;54.00;;;;;;5081461;28;20082;-42
2022/11/15 10:52:26;;;;;;;7.70;1.00;;;15.60;54.00;;;;;;5079376;28;20063;-41
2022/11/15 10:54:57;;;;;;;2.65;0.90;;;15.60;53.90;;;;;;5083122;28;20495;-45
2022/11/15 10:57:27;;;;;;;1.80;0.63;;;15.60;53.90;;;;;;5080434;28;20765;-42
2022/11/15 10:59:57;;;;;;;5.40;0.75;;;15.60;53.90;;;;;;5082709;28;20051;-43
2022/11/15 11:02:35;;;;;;;1.40;0.68;;;15.70;53.80;;;;;;5081157;28;20056;-44
2022/11/15 11:05:03;;;;;;;5.05;0.80;;;15.70;53.60;;;;;;5080515;28;20055;-44
2022/11/15 11:07:32;;;;;;;3.63;0.85;;;15.70;53.70;;;;;;5084003;28;20048;-44
2022/11/15 11:10:03;;;;;;;3.55;0.60;;;15.70;53.70;;;;;;5074772;28;20072;-43
2022/11/15 11:12:33;;;;;;;4.95;0.73;;;15.70;53.70;;;;;;5081947;28;20499;-43
2022/11/15 11:15:02;;;;;;;4.03;0.80;;;15.70;53.60;;;;;;5079543;28;20051;-41
2022/11/15 11:17:51;;;;;;;5.13;1.10;;;15.70;53.60;;;;;;5078742;28;20048;-43
2022/11/15 11:20:27;;;;;;;1.13;0.50;;;15.70;53.40;;;;;;5078879;28;20064;-42
2022/11/15 11:23:04;;;;;;;1.52;0.82;;;15.70;53.50;;;;;;5080591;28;20407;-41
2022/11/15 11:25:36;;;;;;;2.80;0.90;;;15.70;53.40;;;;;;5080379;28;20040;-47
2022/11/15 11:28:18;;;;;;;3.55;1.00;;;15.70;53.40;;;;;;5080751;28;20063;-41
2022/11/15 11:30:57;;;;;;;1.67;0.57;;;15.70;53.20;;;;;;5084284;28;20056;-42
2022/11/15 11:33:33;;;;;;;3.58;0.73;;;15.60;53.10;;;;;;5084650;28;20052;-43
2022/11/15 11:36:12;;;;;;;3.08;0.80;;;15.70;53.30;;;;;;5083308;28;20492;-44
2022/11/15 11:38:51;;;;;;;3.05;0.85;;;15.70;53.40;;;;;;5081711;28;20047;-43
2022/11/15 11:41:32;;;;;;;2.92;1.00;;;15.70;53.60;;;;;;5082715;28;20514;-42
2022/11/15 11:44:11;;;;;;;6.68;1.08;;;15.70;53.50;;;;;;5082477;28;20423;-44
2022/11/15 11:46:49;;;;;;;1.70;1.15;;;15.70;53.70;;;;;;5084784;28;20431;-42
2022/11/15 11:49:22;;;;;;;4.57;0.95;;;15.70;53.80;;;;;;5084864;28;20427;-39
2022/11/15 11:51:56;;;;;;;3.05;1.00;;;15.70;53.70;;;;;;5078496;28;20051;-41
2022/11/15 11:54:33;;;;;;;8.23;1.57;;;15.70;53.70;;;;;;5083873;28;20056;-43
2022/11/15 11:57:03;;;;;;;1.65;1.05;;;15.80;53.70;;;;;;5084746;28;20059;-44
2022/11/15 11:59:40;;;;;;;3.65;1.27;;;15.80;53.70;;;;;;5083331;28;20048;-42
2022/11/15 12:02:15;;;;;;;9.07;1.52;;;15.80;53.70;;;;;;5083966;28;20056;-45
2022/11/15 12:04:48;;;;;;;5.43;1.30;;;15.80;53.80;;;;;;5081657;28;20056;-41
2022/11/15 12:07:21;;;;;;;4.90;1.45;;;15.90;53.90;;;;;;5083722;28;20427;-41
2022/11/15 12:09:56;;;;;;;3.90;1.90;;;16.00;53.70;;;;;;5084199;28;20405;-41
2022/11/15 12:12:32;;;;;;;2.63;1.70;;;15.90;53.30;;;;;;5084284;28;20081;-52
2022/11/15 12:15:03;;;;;;;5.03;1.60;;;16.00;53.20;;;;;;5084736;28;20044;-50
2022/11/15 12:17:32;;;;;;;3.78;1.70;;;16.00;53.30;;;;;;5083911;28;20109;-51
2022/11/15 12:20:04;;;;;;;2.00;1.52;;;16.00;53.10;;;;;;5083639;28;20048;-49
2022/11/15 12:22:39;;;;;;;2.08;1.50;;;16.10;53.20;;;;;;5083445;28;20056;-51
2022/11/15 12:25:16;;;;;;;6.05;1.70;;;16.10;53.20;;;;;;5083918;28;20066;-52
2022/11/15 12:27:48;;;;;;;3.40;1.58;;;16.10;53.30;;;;;;5081814;28;20516;-50
2022/11/15 12:30:18;;;;;;;4.32;1.58;;;16.10;53.40;;;;;;5083593;28;20456;-50
2022/11/15 12:33:02;;;;;;;4.28;2.00;;;16.20;53.50;;;;;;5082791;28;20425;-49
2022/11/15 12:35:35;;;;;;;2.45;1.20;;;16.20;53.10;;;;;;5082588;28;20048;-46
2022/11/15 12:38:03;;;;;;;6.57;1.80;;;16.20;53.00;;;;;;5082221;28;20052;-48
2022/11/15 12:40:33;;;;;;;5.57;1.45;;;16.20;53.00;;;;;;5082371;28;20063;-49
2022/11/15 12:43:11;;;;;;;7.88;2.00;;;16.20;53.10;;;;;;5083762;28;20055;-48
2022/11/15 12:45:41;;;;;;;7.95;1.58;;;16.20;53.10;;;;;;5083322;28;20047;-48
2022/11/15 12:48:57;;;;;;;3.47;1.50;;;16.30;53.20;;;;;;5084176;28;20063;-52
2022/11/15 12:52:06;;;;;;;4.05;1.60;;;16.30;53.00;;;;;;5083581;28;20063;-51
2022/11/15 12:54:58;;;;;;;2.65;1.30;;;16.30;53.10;;;;;;5084796;28;20511;-52
2022/11/15 12:57:40;;;;;;;4.00;1.83;;;16.30;53.30;;;;;;5081849;28;20049;-49
2022/11/15 13:00:44;;;;;;;4.90;1.77;;;16.40;53.10;;;;;;5082524;28;20052;-48
2022/11/15 13:03:20;;;;;;;6.00;1.63;;;16.40;53.10;;;;;;5083833;28;20070;-45
2022/11/15 13:05:57;;;;;;;2.53;1.58;;;16.40;53.20;;;;;;5083023;28;20040;-51
2022/11/15 13:08:55;;;;;;;3.63;1.55;;;16.40;53.20;;;;;;5083552;28;20072;-51
2022/11/15 13:11:52;;;;;;;2.95;1.70;;;16.40;52.90;;;;;;5085541;28;20060;-52
2022/11/15 13:14:51;;;;;;;3.13;1.60;;;16.40;52.80;;;;;;5085919;28;20052;-50
2022/11/15 13:17:33;;;;;;;2.97;1.40;;;16.40;52.80;;;;;;5082999;28;20048;-48
2022/11/15 13:20:25;;;;;;;2.08;1.40;;;16.40;52.90;;;;;;5083224;28;20407;-49
2022/11/15 13:22:59;;;;;;;4.30;1.70;;;16.50;53.00;;;;;;5081822;28;20051;-45